createdAt,value
2018-06-24T00:02:28.732Z,99.90
2018-06-24T00:04:59.931Z,99.70
2018-06-24T00:07:31.932Z,99.90
2018-06-24T00:10:03.344Z,99.90
2018-06-24T00:12:34.707Z,99.90
2018-06-24T00:15:06.557Z,99.90
2018-06-24T00:17:37.672Z,99.90
2018-06-24T00:20:08.996Z,99.90
2018-06-24T00:22:40.039Z,99.90
2018-06-24T00:25:12.186Z,99.90
2018-06-24T00:27:43.420Z,99.90
2018-06-24T00:30:14.632Z,99.90
2018-06-24T00:32:45.972Z,99.90
2018-06-24T00:35:17.167Z,99.90
2018-06-24T00:37:48.544Z,99.90
2018-06-24T00:40:19.740Z,99.90
2018-06-24T00:42:51.360Z,99.90
2018-06-24T00:45:22.759Z,99.90
2018-06-24T00:47:53.919Z,99.90
2018-06-24T00:50:25.145Z,99.90
2018-06-24T00:52:56.446Z,99.90
2018-06-24T00:55:27.660Z,99.90
2018-06-24T00:57:58.939Z,99.90
2018-06-24T01:00:30.072Z,99.90
2018-06-24T01:03:01.507Z,99.90
2018-06-24T01:05:32.670Z,99.90
2018-06-24T01:08:04.097Z,99.90
2018-06-24T01:10:35.696Z,99.90
2018-06-24T01:13:07.075Z,99.90
2018-06-24T01:15:38.323Z,99.90
2018-06-24T01:18:09.463Z,99.90
2018-06-24T01:20:40.921Z,99.90
2018-06-24T01:23:12.440Z,99.90
2018-06-24T01:25:43.764Z,99.90
2018-06-24T01:30:45.353Z,99.90
2018-06-24T01:33:16.713Z,99.90
2018-06-24T01:35:48.688Z,99.90
2018-06-24T01:38:19.695Z,99.90
2018-06-24T01:40:50.895Z,99.90
2018-06-24T01:43:22.553Z,99.90
2018-06-24T01:45:53.691Z,99.90
2018-06-24T01:48:24.862Z,99.90
2018-06-24T01:50:56.034Z,99.90
2018-06-24T01:53:27.291Z,99.90
2018-06-24T01:55:58.659Z,99.90
2018-06-24T01:58:29.838Z,99.90
2018-06-24T02:01:01.031Z,99.90
2018-06-24T02:03:32.419Z,99.90
2018-06-24T02:06:08.687Z,99.90
2018-06-24T02:08:40.205Z,99.90
2018-06-24T02:13:42.045Z,99.90
2018-06-24T02:16:13.269Z,99.90
2018-06-24T02:18:44.508Z,99.90
2018-06-24T02:21:16.480Z,99.90
2018-06-24T02:23:48.090Z,99.90
2018-06-24T02:26:19.686Z,99.90
2018-06-24T02:28:51.049Z,99.90
2018-06-24T02:31:22.387Z,99.90
2018-06-24T02:33:53.601Z,99.90
2018-06-24T02:36:25.250Z,99.90
2018-06-24T02:38:56.596Z,99.90
2018-06-24T02:41:27.928Z,99.90
2018-06-24T02:43:58.945Z,99.90
2018-06-24T02:46:30.580Z,99.90
2018-06-24T02:49:01.944Z,99.90
2018-06-24T02:51:33.341Z,99.90
2018-06-24T02:54:05.045Z,99.90
2018-06-24T02:56:36.095Z,99.90
2018-06-24T02:59:07.273Z,99.90
2018-06-24T03:01:39.112Z,99.90
2018-06-24T03:04:10.243Z,99.90
2018-06-24T03:06:41.596Z,99.90
2018-06-24T03:09:12.897Z,99.90
2018-06-24T03:11:44.452Z,99.90
2018-06-24T03:14:15.781Z,99.90
2018-06-24T03:16:47.397Z,99.90
2018-06-24T03:19:18.801Z,99.90
2018-06-24T03:21:50.208Z,99.90
2018-06-24T03:24:21.393Z,99.90
2018-06-24T03:26:59.296Z,99.90
2018-06-24T03:29:30.391Z,99.90
2018-06-24T03:32:01.643Z,99.90
2018-06-24T03:34:32.978Z,99.90
2018-06-24T03:37:04.425Z,99.90
2018-06-24T03:39:41.891Z,99.90
2018-06-24T03:42:13.243Z,99.90
2018-06-24T03:44:44.621Z,99.90
2018-06-24T03:47:16.239Z,99.90
2018-06-24T03:49:47.879Z,99.90
2018-06-24T03:52:19.454Z,99.90
2018-06-24T03:54:50.835Z,99.90
2018-06-24T03:57:22.167Z,99.90
2018-06-24T03:59:53.345Z,99.90
2018-06-24T04:02:24.781Z,99.90
2018-06-24T04:04:56.133Z,99.90
2018-06-24T04:07:27.555Z,99.90
2018-06-24T04:09:58.758Z,99.90
2018-06-24T04:12:30.097Z,99.90
2018-06-24T04:15:01.320Z,99.90
2018-06-24T04:17:32.526Z,99.90
2018-06-24T04:20:03.742Z,99.90
2018-06-24T04:22:35.009Z,99.90
2018-06-24T04:25:06.664Z,99.90
2018-06-24T04:27:38.539Z,99.90
2018-06-24T04:30:10.259Z,99.90
2018-06-24T04:32:41.850Z,99.90
2018-06-24T04:35:13.303Z,99.90
2018-06-24T04:37:44.923Z,99.90
2018-06-24T04:40:16.688Z,99.90
2018-06-24T04:42:47.912Z,99.90
2018-06-24T04:45:19.484Z,99.90
2018-06-24T04:47:50.832Z,99.90
2018-06-24T04:50:22.206Z,99.90
2018-06-24T04:52:53.429Z,99.90
2018-06-24T04:55:25.088Z,99.90
2018-06-24T04:57:56.384Z,99.90
2018-06-24T05:00:29.120Z,99.90
2018-06-24T05:03:00.523Z,99.90
2018-06-24T05:05:31.901Z,99.90
2018-06-24T05:10:35.304Z,99.90
2018-06-24T05:13:06.869Z,99.90
2018-06-24T05:15:38.268Z,99.90
2018-06-24T05:18:09.607Z,99.90
2018-06-24T05:20:40.866Z,99.90
2018-06-24T05:23:12.060Z,99.90
2018-06-24T05:25:43.570Z,99.90
2018-06-24T05:28:14.814Z,99.90
2018-06-24T05:30:46.017Z,99.90
2018-06-24T05:33:17.842Z,99.90
2018-06-24T05:35:49.736Z,99.90
2018-06-24T05:38:21.340Z,99.90
2018-06-24T05:40:52.732Z,99.90
2018-06-24T05:43:24.901Z,99.90
2018-06-24T05:45:57.080Z,99.90
2018-06-24T05:48:28.373Z,99.90
2018-06-24T05:50:59.942Z,99.90
2018-06-24T05:53:31.460Z,99.90
2018-06-24T05:56:02.816Z,99.90
2018-06-24T05:58:34.484Z,99.90
2018-06-24T06:01:05.936Z,99.90
2018-06-24T06:03:37.480Z,99.90
2018-06-24T06:06:09.848Z,99.90
2018-06-24T06:08:41.415Z,99.90
2018-06-24T06:11:12.971Z,99.90
2018-06-24T06:13:44.543Z,99.90
2018-06-24T06:16:15.941Z,99.90
2018-06-24T06:18:47.398Z,99.90
2018-06-24T06:21:19.044Z,99.90
2018-06-24T06:26:22.243Z,99.90
2018-06-24T06:28:53.528Z,99.90
2018-06-24T06:31:25.166Z,99.90
2018-06-24T06:33:56.986Z,99.90
2018-06-24T06:38:59.635Z,99.90
2018-06-24T06:41:31.223Z,99.90
2018-06-24T06:44:02.879Z,99.90
2018-06-24T06:46:34.229Z,99.90
2018-06-24T06:49:05.627Z,99.90
2018-06-24T06:51:37.775Z,99.90
2018-06-24T06:54:09.208Z,99.90
2018-06-24T06:56:41.816Z,99.90
2018-06-24T07:01:44.347Z,99.90
2018-06-24T07:04:16.024Z,99.90
2018-06-24T07:06:47.472Z,99.90
2018-06-24T07:09:18.991Z,99.90
2018-06-24T07:11:50.370Z,99.90
2018-06-24T07:14:21.792Z,99.90
2018-06-24T07:16:53.172Z,99.90
2018-06-24T07:19:24.712Z,99.90
2018-06-24T07:21:56.588Z,99.90
2018-06-24T07:24:27.997Z,99.90
2018-06-24T07:26:59.643Z,99.90
2018-06-24T07:29:30.979Z,99.90
2018-06-24T07:32:02.825Z,99.90
2018-06-24T07:34:34.254Z,99.90
2018-06-24T07:37:05.667Z,99.90
2018-06-24T07:39:37.263Z,99.90
2018-06-24T07:42:08.861Z,99.90
2018-06-24T07:47:10.988Z,99.90
2018-06-24T07:49:42.666Z,99.90
2018-06-24T07:52:14.200Z,99.90
2018-06-24T07:54:45.765Z,99.90
2018-06-24T07:57:17.447Z,99.90
2018-06-24T07:59:48.776Z,99.90
2018-06-24T08:02:20.384Z,99.90
2018-06-24T08:04:51.956Z,99.90
2018-06-24T08:07:23.359Z,99.90
2018-06-24T08:09:54.763Z,99.90
2018-06-24T08:12:26.181Z,99.90
2018-06-24T08:14:57.459Z,99.90
2018-06-24T08:17:28.842Z,99.90
2018-06-24T08:20:00.154Z,99.90
2018-06-24T08:22:31.371Z,99.90
2018-06-24T08:25:02.513Z,99.90
2018-06-24T08:27:34.217Z,99.90
2018-06-24T08:30:05.926Z,99.90
2018-06-24T08:32:37.027Z,99.90
2018-06-24T08:35:08.362Z,99.90
2018-06-24T08:37:39.672Z,99.90
2018-06-24T08:40:11.296Z,99.90
2018-06-24T08:42:43.007Z,99.90
2018-06-24T08:45:14.416Z,99.90
2018-06-24T08:47:45.798Z,99.90
2018-06-24T08:50:17.177Z,99.90
2018-06-24T08:52:48.582Z,99.90
2018-06-24T08:55:19.788Z,99.90
2018-06-24T08:57:51.857Z,99.90
2018-06-24T09:00:23.304Z,99.90
2018-06-24T09:02:54.757Z,99.90
2018-06-24T09:07:56.865Z,99.90
2018-06-24T09:10:28.102Z,99.90
2018-06-24T09:12:59.710Z,99.90
2018-06-24T09:15:31.318Z,99.90
2018-06-24T09:18:02.617Z,99.90
2018-06-24T09:20:34.013Z,98.60
2018-06-24T09:23:05.532Z,98.20
2018-06-24T09:25:36.825Z,98.10
2018-06-24T09:28:08.412Z,98.60
2018-06-24T09:30:39.797Z,96.70
2018-06-24T09:34:13.618Z,97.70
2018-06-24T09:36:44.853Z,96.70
2018-06-24T09:39:16.050Z,95.50
2018-06-24T09:41:47.572Z,95.50
2018-06-24T09:44:18.775Z,97.20
2018-06-24T09:46:50.008Z,93.50
2018-06-24T09:49:21.156Z,95.40
2018-06-24T09:51:52.181Z,95.70
2018-06-24T09:54:23.344Z,95.00
2018-06-24T09:56:54.591Z,94.20
2018-06-24T09:59:25.973Z,93.90
2018-06-24T10:01:57.169Z,94.60
2018-06-24T10:04:28.516Z,94.30
2018-06-24T10:06:59.723Z,93.60
2018-06-24T10:09:31.085Z,93.60
2018-06-24T10:12:02.439Z,92.20
2018-06-24T10:14:33.712Z,92.00
2018-06-24T10:17:04.859Z,91.20
2018-06-24T10:19:37.049Z,90.40
2018-06-24T10:22:08.702Z,91.60
2018-06-24T10:24:40.029Z,91.30
2018-06-24T10:27:11.454Z,87.30
2018-06-24T10:29:43.099Z,90.90
2018-06-24T10:34:45.813Z,90.90
2018-06-24T10:37:17.149Z,90.00
2018-06-24T10:39:48.789Z,91.00
2018-06-24T10:42:20.189Z,88.90
2018-06-24T10:44:51.703Z,84.50
2018-06-24T10:47:23.094Z,89.70
2018-06-24T10:49:54.755Z,85.90
2018-06-24T10:52:26.074Z,82.30
2018-06-24T10:54:57.508Z,84.00
2018-06-24T10:57:28.668Z,85.90
2018-06-24T10:59:59.847Z,79.20
2018-06-24T11:02:31.207Z,82.80
2018-06-24T11:05:02.651Z,81.90
2018-06-24T11:07:33.788Z,80.80
2018-06-24T11:10:05.297Z,77.10
2018-06-24T11:12:36.573Z,80.20
2018-06-24T11:15:07.591Z,78.00
2018-06-24T11:17:38.788Z,77.70
2018-06-24T11:20:10.145Z,81.60
2018-06-24T11:22:41.188Z,79.50
2018-06-24T11:25:12.579Z,74.20
2018-06-24T11:27:43.761Z,74.10
2018-06-24T11:30:15.033Z,73.90
2018-06-24T11:32:46.125Z,73.70
2018-06-24T11:35:17.706Z,73.50
2018-06-24T11:37:49.287Z,77.30
2018-06-24T11:40:20.529Z,76.30
2018-06-24T11:42:51.842Z,76.70
2018-06-24T11:45:23.045Z,70.30
2018-06-24T11:47:54.355Z,72.70
2018-06-24T11:50:25.616Z,69.00
2018-06-24T11:52:57.044Z,74.30
2018-06-24T11:55:28.376Z,75.70
2018-06-24T11:57:59.591Z,74.30
2018-06-24T12:00:30.809Z,73.00
2018-06-24T12:03:02.160Z,71.30
2018-06-24T12:05:34.188Z,70.60
2018-06-24T12:08:05.378Z,69.30
2018-06-24T12:10:36.708Z,72.90
2018-06-24T12:13:08.953Z,68.20
2018-06-24T12:15:40.405Z,69.50
2018-06-24T12:18:11.696Z,70.00
2018-06-24T12:20:42.873Z,69.50
2018-06-24T12:23:14.259Z,67.50
2018-06-24T12:25:45.659Z,69.00
2018-06-24T12:28:17.065Z,65.50
2018-06-24T12:30:48.235Z,64.30
2018-06-24T12:33:19.424Z,67.90
2018-06-24T12:35:50.852Z,64.20
2018-06-24T12:38:22.203Z,60.00
2018-06-24T12:40:53.912Z,59.80
2018-06-24T12:43:25.550Z,59.40
2018-06-24T12:45:56.945Z,61.50
2018-06-24T12:48:28.391Z,62.30
2018-06-24T12:50:59.737Z,58.10
2018-06-24T12:53:31.091Z,59.70
2018-06-24T12:56:02.321Z,59.10
2018-06-24T12:58:33.992Z,57.80
2018-06-24T13:03:35.707Z,58.10
2018-06-24T13:06:07.199Z,60.90
2018-06-24T13:08:38.348Z,61.70
2018-06-24T13:11:09.509Z,61.30
2018-06-24T13:13:41.149Z,59.00
2018-06-24T13:18:43.041Z,56.20
2018-06-24T13:21:14.490Z,54.80
2018-06-24T13:23:45.622Z,54.80
2018-06-24T13:26:16.989Z,54.70
2018-06-24T13:28:48.431Z,56.70
2018-06-24T13:31:19.791Z,58.00
2018-06-24T13:33:50.933Z,56.80
2018-06-24T13:36:22.791Z,56.10
2018-06-24T13:38:54.171Z,50.70
2018-06-24T13:41:25.336Z,47.90
2018-06-24T13:43:56.727Z,51.20
2018-06-24T13:46:28.085Z,54.00
2018-06-24T13:48:59.113Z,50.40
2018-06-24T13:51:30.488Z,52.30
2018-06-24T13:54:01.680Z,50.30
2018-06-24T13:56:33.086Z,48.40
2018-06-24T13:59:04.285Z,50.80
2018-06-24T14:01:35.481Z,51.50
2018-06-24T14:04:08.109Z,53.40
2018-06-24T14:06:39.443Z,50.60
2018-06-24T14:09:13.666Z,52.20
2018-06-24T14:11:44.771Z,52.60
2018-06-24T14:14:16.121Z,51.30
2018-06-24T14:16:47.335Z,51.60
2018-06-24T14:19:18.700Z,52.00
2018-06-24T14:21:50.093Z,51.60
2018-06-24T14:24:21.328Z,51.90
2018-06-24T14:26:52.489Z,52.40
2018-06-24T14:29:23.688Z,53.50
2018-06-24T14:31:54.859Z,54.40
2018-06-24T14:34:26.234Z,53.60
2018-06-24T14:36:57.616Z,52.40
2018-06-24T14:39:29.088Z,52.90
2018-06-24T14:42:00.380Z,54.30
2018-06-24T14:44:31.417Z,53.40
2018-06-24T14:47:02.673Z,54.90
2018-06-24T14:49:34.118Z,55.40
2018-06-24T14:52:05.851Z,55.30
2018-06-24T14:54:37.135Z,55.60
2018-06-24T14:57:08.408Z,57.40
2018-06-24T14:59:39.575Z,56.40
2018-06-24T15:02:11.360Z,55.60
2018-06-24T15:04:42.589Z,57.60
2018-06-24T15:07:13.770Z,56.20
2018-06-24T15:09:45.072Z,56.00
2018-06-24T15:12:16.752Z,58.20
2018-06-24T15:14:48.089Z,54.40
2018-06-24T15:17:19.226Z,55.90
2018-06-24T15:19:50.313Z,55.60
2018-06-24T15:22:21.744Z,57.00
2018-06-24T15:24:53.275Z,56.40
2018-06-24T15:27:24.606Z,56.80
2018-06-24T15:29:55.807Z,57.90
2018-06-24T15:32:27.009Z,57.40
2018-06-24T15:34:58.417Z,56.60
2018-06-24T15:37:29.688Z,56.20
2018-06-24T15:40:00.948Z,56.00
2018-06-24T15:42:32.207Z,56.60
2018-06-24T15:45:03.594Z,55.00
2018-06-24T15:47:34.740Z,56.70
2018-06-24T15:50:06.764Z,56.20
2018-06-24T15:52:37.969Z,54.90
2018-06-24T15:55:09.302Z,54.60
2018-06-24T15:57:40.636Z,54.30
2018-06-24T16:00:12.143Z,53.80
2018-06-24T16:02:43.457Z,54.60
2018-06-24T16:05:14.684Z,52.00
2018-06-24T16:07:45.828Z,54.80
2018-06-24T16:10:17.198Z,52.00
2018-06-24T16:12:48.424Z,55.50
2018-06-24T16:15:19.837Z,52.80
2018-06-24T16:17:51.158Z,54.60
2018-06-24T16:20:22.554Z,52.90
2018-06-24T16:22:53.636Z,51.40
2018-06-24T16:25:24.874Z,51.20
2018-06-24T16:27:55.939Z,53.50
2018-06-24T16:31:30.692Z,52.10
2018-06-24T16:34:02.328Z,50.80
2018-06-24T16:36:33.441Z,47.70
2018-06-24T16:39:07.224Z,51.80
2018-06-24T16:41:38.548Z,53.10
2018-06-24T16:44:10.018Z,56.00
2018-06-24T16:46:41.144Z,56.60
2018-06-24T16:49:12.800Z,58.10
2018-06-24T16:51:43.944Z,58.70
2018-06-24T16:54:15.507Z,58.50
2018-06-24T16:56:46.919Z,59.80
2018-06-24T16:59:18.092Z,59.60
2018-06-24T17:01:49.460Z,61.10
2018-06-24T17:04:21.120Z,60.20
2018-06-24T17:06:52.245Z,60.80
2018-06-24T17:09:23.591Z,63.50
2018-06-24T17:11:54.840Z,62.50
2018-06-24T17:14:26.014Z,63.60
2018-06-24T17:16:57.237Z,62.80
2018-06-24T17:19:28.402Z,63.50
2018-06-24T17:22:00.032Z,64.10
2018-06-24T17:24:31.648Z,64.30
2018-06-24T17:27:02.958Z,65.20
2018-06-24T17:29:34.310Z,63.50
2018-06-24T17:32:05.736Z,62.60
2018-06-24T17:34:37.146Z,64.30
2018-06-24T17:37:08.588Z,64.30
2018-06-24T17:39:40.740Z,65.80
2018-06-24T17:42:12.059Z,64.80
2018-06-24T17:44:43.270Z,65.00
2018-06-24T17:47:14.622Z,63.50
2018-06-24T17:49:45.808Z,65.50
2018-06-24T17:52:16.871Z,64.50
2018-06-24T17:54:48.047Z,65.80
2018-06-24T17:57:19.445Z,65.10
2018-06-24T17:59:51.000Z,65.60
2018-06-24T18:02:22.364Z,65.90
2018-06-24T18:04:54.056Z,66.50
2018-06-24T18:07:25.188Z,66.20
2018-06-24T18:09:56.437Z,65.90
2018-06-24T18:12:27.559Z,65.00
2018-06-24T18:14:58.938Z,64.20
2018-06-24T18:17:30.133Z,65.40
2018-06-24T18:20:01.550Z,63.50
2018-06-24T18:22:32.708Z,64.50
2018-06-24T18:25:04.344Z,65.20
2018-06-24T18:27:35.494Z,63.20
2018-06-24T18:30:07.144Z,62.30
2018-06-24T18:32:38.428Z,63.90
2018-06-24T18:35:10.304Z,64.40
2018-06-24T18:37:41.621Z,64.70
2018-06-24T18:40:12.811Z,64.70
2018-06-24T18:42:44.190Z,65.60
2018-06-24T18:45:15.430Z,65.40
2018-06-24T18:47:47.048Z,66.20
2018-06-24T18:50:18.179Z,66.90
2018-06-24T18:52:49.651Z,67.10
2018-06-24T18:55:20.983Z,66.10
2018-06-24T19:02:41.668Z,67.80
2018-06-24T19:05:12.908Z,68.20
2018-06-24T19:07:43.920Z,68.90
2018-06-24T19:10:15.311Z,68.50
2018-06-24T19:12:46.496Z,69.80
2018-06-24T19:15:17.907Z,69.90
2018-06-24T19:17:49.065Z,70.60
2018-06-24T19:20:20.508Z,70.70
2018-06-24T19:22:52.120Z,71.70
2018-06-24T19:25:23.261Z,71.40
2018-06-24T19:27:55.266Z,72.00
2018-06-24T19:30:26.619Z,72.30
2018-06-24T19:32:58.004Z,72.30
2018-06-24T19:35:29.224Z,72.90
2018-06-24T19:38:00.369Z,73.50
2018-06-24T19:40:31.773Z,73.70
2018-06-24T19:43:03.197Z,75.30
2018-06-24T19:45:35.796Z,74.50
2018-06-24T19:48:07.402Z,74.40
2018-06-24T19:50:38.945Z,75.80
2018-06-24T19:53:11.953Z,77.10
2018-06-24T19:55:43.064Z,77.00
2018-06-24T19:58:14.272Z,77.90
2018-06-24T20:00:45.475Z,77.90
2018-06-24T20:03:16.818Z,78.50
2018-06-24T20:05:48.644Z,77.80
2018-06-24T20:08:20.188Z,78.60
2018-06-24T20:10:51.541Z,78.90
2018-06-24T20:13:22.739Z,78.30
2018-06-24T20:15:54.184Z,79.30
2018-06-24T20:18:25.119Z,79.80
2018-06-24T20:20:56.813Z,79.40
2018-06-24T20:24:31.588Z,79.50
2018-06-24T20:27:04.102Z,79.90
2018-06-24T20:29:35.347Z,80.60
2018-06-24T20:32:06.786Z,81.30
2018-06-24T20:34:38.511Z,82.70
2018-06-24T20:37:09.963Z,83.30
2018-06-24T20:39:41.113Z,82.90
2018-06-24T20:42:12.561Z,82.30
2018-06-24T20:44:43.904Z,82.60
2018-06-24T20:47:15.806Z,83.50
2018-06-24T20:49:47.296Z,83.30
2018-06-24T20:52:18.459Z,83.70
2018-06-24T20:54:49.816Z,85.00
2018-06-24T20:57:21.302Z,85.70
2018-06-24T20:59:52.589Z,86.00
2018-06-24T21:02:24.265Z,85.80
2018-06-24T21:04:55.372Z,86.10
2018-06-24T21:07:26.536Z,86.80
2018-06-24T21:09:57.788Z,87.60
2018-06-24T21:12:29.237Z,89.70
2018-06-24T21:15:00.350Z,89.40
2018-06-24T21:17:32.198Z,90.00
2018-06-24T21:20:03.516Z,90.10
2018-06-24T21:22:34.703Z,90.40
2018-06-24T21:25:06.083Z,91.20
2018-06-24T21:27:37.276Z,91.00
2018-06-24T21:30:08.740Z,91.00
2018-06-24T21:32:40.025Z,91.50
2018-06-24T21:35:11.271Z,91.80
2018-06-24T21:37:42.692Z,91.80
2018-06-24T21:40:13.851Z,92.40
2018-06-24T21:42:45.031Z,92.50
2018-06-24T21:45:16.427Z,92.90
2018-06-24T21:47:47.642Z,93.40
2018-06-24T21:50:19.234Z,93.20
2018-06-24T21:52:51.341Z,93.60
2018-06-24T21:55:22.543Z,94.10
2018-06-24T21:57:54.215Z,93.80
2018-06-24T22:00:25.408Z,94.60
2018-06-24T22:02:56.703Z,95.30
2018-06-24T22:05:27.951Z,95.50
2018-06-24T22:07:59.119Z,95.90
2018-06-24T22:10:30.333Z,95.90
2018-06-24T22:13:01.988Z,96.00
2018-06-24T22:15:33.246Z,96.40
2018-06-24T22:18:04.482Z,96.70
2018-06-24T22:20:35.664Z,96.70
2018-06-24T22:23:06.883Z,96.80
2018-06-24T22:25:38.488Z,97.00
2018-06-24T22:28:09.628Z,97.20
2018-06-24T22:30:41.484Z,97.40
2018-06-24T22:33:12.617Z,97.90
2018-06-24T22:35:43.759Z,98.30
2018-06-24T22:38:15.361Z,98.80
2018-06-24T22:40:47.516Z,98.80
2018-06-24T22:43:21.860Z,98.80
2018-06-24T22:45:53.253Z,99.10
2018-06-24T22:48:24.513Z,99.60
2018-06-24T22:50:55.668Z,99.50
2018-06-24T22:53:27.016Z,99.50
2018-06-24T22:55:58.492Z,99.90
2018-06-24T22:58:29.811Z,99.90
2018-06-24T23:01:01.063Z,99.90
2018-06-24T23:03:32.211Z,99.90
2018-06-24T23:06:03.558Z,99.90
2018-06-24T23:08:34.984Z,99.90
2018-06-24T23:11:06.508Z,99.90
2018-06-24T23:13:37.734Z,99.90
2018-06-24T23:16:09.036Z,99.90
2018-06-24T23:18:40.339Z,99.90
2018-06-24T23:21:11.588Z,99.90
2018-06-24T23:23:42.688Z,99.90
2018-06-24T23:26:13.714Z,99.90
2018-06-24T23:29:47.846Z,99.90
2018-06-24T23:32:19.009Z,99.90
2018-06-24T23:34:50.395Z,99.90
2018-06-24T23:37:21.781Z,99.90
2018-06-24T23:39:52.972Z,99.90
2018-06-24T23:42:24.596Z,99.90
2018-06-24T23:47:26.360Z,99.90
2018-06-24T23:49:58.028Z,99.90
2018-06-24T23:52:29.103Z,99.90
2018-06-24T23:55:00.510Z,99.90
2018-06-24T23:57:32.160Z,99.90
